createdAt,value
2018-07-11T00:00:22.455Z,7.20
2018-07-11T00:01:22.534Z,6.10
2018-07-11T00:02:22.405Z,5.70
2018-07-11T00:03:22.443Z,7.90
2018-07-11T00:04:22.358Z,8.30
2018-07-11T00:05:22.355Z,6.20
2018-07-11T00:06:22.313Z,7.40
2018-07-11T00:07:22.365Z,6.90
2018-07-11T00:08:22.272Z,8.20
2018-07-11T00:09:22.279Z,8.20
2018-07-11T00:10:22.225Z,7.60
2018-07-11T00:11:22.292Z,6.10
2018-07-11T00:12:22.177Z,6.40
2018-07-11T00:13:22.202Z,5.60
2018-07-11T00:14:22.133Z,6.00
2018-07-11T00:15:22.212Z,8.20
2018-07-11T00:16:22.089Z,8.60
2018-07-11T00:17:22.121Z,8.30
2018-07-11T00:18:22.068Z,6.40
2018-07-11T00:19:22.131Z,6.90
2018-07-11T00:20:21.994Z,5.80
2018-07-11T00:21:22.051Z,6.80
2018-07-11T00:22:21.953Z,5.70
2018-07-11T00:23:21.954Z,6.80
2018-07-11T00:24:21.907Z,6.20
2018-07-11T00:25:21.967Z,8.10
2018-07-11T00:26:21.861Z,6.40
2018-07-11T00:27:21.875Z,8.30
2018-07-11T00:28:21.816Z,7.40
2018-07-11T00:29:21.888Z,8.10
2018-07-11T00:30:21.770Z,8.60
2018-07-11T00:31:21.814Z,7.50
2018-07-11T00:32:21.726Z,8.70
2018-07-11T00:33:21.812Z,6.60
2018-07-11T00:34:21.676Z,5.40
2018-07-11T00:35:21.721Z,7.40
2018-07-11T00:36:21.631Z,7.70
2018-07-11T00:37:21.727Z,8.30
2018-07-11T00:38:21.588Z,6.70
2018-07-11T00:39:21.642Z,6.70
2018-07-11T00:40:21.542Z,8.70
2018-07-11T00:41:21.555Z,7.30
2018-07-11T00:42:21.506Z,5.80
2018-07-11T00:43:21.565Z,5.60
2018-07-11T00:44:21.451Z,5.50
2018-07-11T00:45:21.477Z,8.60
2018-07-11T00:46:21.406Z,5.50
2018-07-11T00:47:21.486Z,7.20
2018-07-11T00:48:21.361Z,5.80
2018-07-11T00:49:21.399Z,7.80
2018-07-11T00:50:21.314Z,7.60
2018-07-11T00:51:21.313Z,5.50
2018-07-11T00:52:21.270Z,6.90
2018-07-11T00:53:21.320Z,6.90
2018-07-11T00:54:21.221Z,8.00
2018-07-11T00:55:21.233Z,9.30
2018-07-11T00:56:21.178Z,7.10
2018-07-11T00:57:21.252Z,11.70
2018-07-11T00:58:21.131Z,8.10
2018-07-11T00:59:21.153Z,7.00
2018-07-11T01:00:21.088Z,10.20
2018-07-11T01:01:21.167Z,8.60
2018-07-11T01:02:21.037Z,6.30
2018-07-11T01:03:21.077Z,8.60
2018-07-11T01:04:21.002Z,6.60
2018-07-11T01:05:20.987Z,8.20
2018-07-11T01:06:20.943Z,8.70
2018-07-11T01:07:21.002Z,7.70
2018-07-11T01:08:20.901Z,6.60
2018-07-11T01:09:20.910Z,7.20
2018-07-11T01:10:20.874Z,7.80
2018-07-11T01:11:20.922Z,8.10
2018-07-11T01:12:20.827Z,8.90
2018-07-11T01:13:20.834Z,6.50
2018-07-11T01:14:20.760Z,6.70
2018-07-11T01:15:20.848Z,7.10
2018-07-11T01:16:20.743Z,7.10
2018-07-11T01:17:20.758Z,7.70
2018-07-11T01:18:20.669Z,7.20
2018-07-11T01:19:20.769Z,7.60
2018-07-11T01:20:20.624Z,7.50
2018-07-11T01:21:20.678Z,6.80
2018-07-11T01:22:20.577Z,6.30
2018-07-11T01:23:20.591Z,6.60
2018-07-11T01:24:20.529Z,8.60
2018-07-11T01:25:20.602Z,6.70
2018-07-11T01:26:20.483Z,5.40
2018-07-11T01:27:20.514Z,7.60
2018-07-11T01:28:20.441Z,6.50
2018-07-11T01:29:20.522Z,7.80
2018-07-11T01:30:20.395Z,7.50
2018-07-11T01:31:20.432Z,6.30
2018-07-11T01:32:20.344Z,7.90
2018-07-11T01:33:20.346Z,7.60
2018-07-11T01:34:20.301Z,9.00
2018-07-11T01:35:20.354Z,8.80
2018-07-11T01:36:20.258Z,7.60
2018-07-11T01:37:20.268Z,8.00
2018-07-11T01:38:20.210Z,6.20
2018-07-11T01:39:20.282Z,7.10
2018-07-11T01:40:20.154Z,8.50
2018-07-11T01:41:20.191Z,7.90
2018-07-11T01:42:20.112Z,7.20
2018-07-11T01:43:20.205Z,7.70
2018-07-11T01:44:20.066Z,6.70
2018-07-11T01:45:20.104Z,10.60
2018-07-11T01:46:20.021Z,8.60
2018-07-11T01:47:20.023Z,9.70
2018-07-11T01:48:19.999Z,7.60
2018-07-11T01:49:20.087Z,8.40
2018-07-11T01:50:19.929Z,7.70
2018-07-11T01:51:19.944Z,6.80
2018-07-11T01:52:19.891Z,8.80
2018-07-11T01:53:19.961Z,7.30
2018-07-11T01:54:19.830Z,10.30
2018-07-11T01:55:19.866Z,6.60
2018-07-11T01:56:19.785Z,7.20
2018-07-11T01:57:19.878Z,6.80
2018-07-11T01:58:19.740Z,9.30
2018-07-11T01:59:19.788Z,6.60
2018-07-11T02:00:19.696Z,7.40
2018-07-11T02:01:19.698Z,6.70
2018-07-11T02:02:19.647Z,7.60
2018-07-11T02:03:19.745Z,7.40
2018-07-11T02:04:19.603Z,5.80
2018-07-11T02:05:19.619Z,8.50
2018-07-11T02:06:19.552Z,10.00
2018-07-11T02:07:19.633Z,7.20
2018-07-11T02:08:19.507Z,6.40
2018-07-11T02:09:19.543Z,7.50
2018-07-11T02:10:19.460Z,6.60
2018-07-11T02:11:19.454Z,6.40
2018-07-11T02:12:19.414Z,9.90
2018-07-11T02:13:19.465Z,9.70
2018-07-11T02:14:19.364Z,8.00
2018-07-11T02:15:19.378Z,7.80
2018-07-11T02:16:19.318Z,6.30
2018-07-11T02:17:19.388Z,7.00
2018-07-11T02:18:19.272Z,7.10
2018-07-11T02:19:19.299Z,8.10
2018-07-11T02:20:19.228Z,9.60
2018-07-11T02:21:19.308Z,6.60
2018-07-11T02:22:19.185Z,7.70
2018-07-11T02:23:19.221Z,10.10
2018-07-11T02:24:19.130Z,7.70
2018-07-11T02:25:19.134Z,7.80
2018-07-11T02:26:19.120Z,7.20
2018-07-11T02:27:19.144Z,8.60
2018-07-11T02:28:19.038Z,8.00
2018-07-11T02:29:19.053Z,8.00
2018-07-11T02:30:18.993Z,8.50
2018-07-11T02:31:19.064Z,6.70
2018-07-11T02:32:18.948Z,9.10
2018-07-11T02:33:18.976Z,8.80
2018-07-11T02:34:18.896Z,7.10
2018-07-11T02:35:18.886Z,7.70
2018-07-11T02:36:18.851Z,8.50
2018-07-11T02:37:18.899Z,9.00
2018-07-11T02:38:18.805Z,10.30
2018-07-11T02:39:18.810Z,7.50
2018-07-11T02:40:18.755Z,8.00
2018-07-11T02:41:18.824Z,7.10
2018-07-11T02:42:18.710Z,8.50
2018-07-11T02:43:18.734Z,7.80
2018-07-11T02:44:18.662Z,9.10
2018-07-11T02:45:18.744Z,7.50
2018-07-11T02:46:18.622Z,7.10
2018-07-11T02:47:18.656Z,7.60
2018-07-11T02:48:18.567Z,8.90
2018-07-11T02:49:18.566Z,6.80
2018-07-11T02:50:18.522Z,8.00
2018-07-11T02:51:18.571Z,7.70
2018-07-11T02:52:18.477Z,6.20
2018-07-11T02:53:18.488Z,7.70
2018-07-11T02:54:18.425Z,7.00
2018-07-11T02:55:18.501Z,7.20
2018-07-11T02:56:18.380Z,8.40
2018-07-11T02:57:18.414Z,7.10
2018-07-11T02:58:18.329Z,8.10
2018-07-11T02:59:18.425Z,7.40
2018-07-11T03:00:18.287Z,8.80
2018-07-11T03:01:18.336Z,6.70
2018-07-11T03:02:18.237Z,7.40
2018-07-11T03:03:18.243Z,9.60
2018-07-11T03:04:18.192Z,7.40
2018-07-11T03:05:18.257Z,9.10
2018-07-11T03:06:18.144Z,8.70
2018-07-11T03:07:18.181Z,7.30
2018-07-11T03:08:18.095Z,6.80
2018-07-11T03:09:18.179Z,8.10
2018-07-11T03:10:18.050Z,7.40
2018-07-11T03:11:18.087Z,8.30
2018-07-11T03:12:18.001Z,7.20
2018-07-11T03:13:17.996Z,7.80
2018-07-11T03:14:17.955Z,7.30
2018-07-11T03:15:18.011Z,8.00
2018-07-11T03:16:17.905Z,7.00
2018-07-11T03:17:17.924Z,8.90
2018-07-11T03:18:17.859Z,9.90
2018-07-11T03:19:17.936Z,8.80
2018-07-11T03:20:17.811Z,7.30
2018-07-11T03:21:17.844Z,7.10
2018-07-11T03:22:17.763Z,8.10
2018-07-11T03:23:17.765Z,8.00
2018-07-11T03:24:17.721Z,6.60
2018-07-11T03:25:17.764Z,7.80
2018-07-11T03:26:17.668Z,7.60
2018-07-11T03:27:17.681Z,8.70
2018-07-11T03:28:17.623Z,9.10
2018-07-11T03:29:17.687Z,7.00
2018-07-11T03:30:17.580Z,9.00
2018-07-11T03:31:17.596Z,7.30
2018-07-11T03:32:17.527Z,9.50
2018-07-11T03:33:17.610Z,8.50
2018-07-11T03:34:17.483Z,8.70
2018-07-11T03:35:17.522Z,7.20
2018-07-11T03:36:17.432Z,8.20
2018-07-11T03:37:17.429Z,5.80
2018-07-11T03:38:17.384Z,6.50
2018-07-11T03:39:17.443Z,7.80
2018-07-11T03:40:17.337Z,8.70
2018-07-11T03:41:17.372Z,8.90
2018-07-11T03:42:17.288Z,7.80
2018-07-11T03:43:17.365Z,9.00
2018-07-11T03:44:17.274Z,7.20
2018-07-11T03:45:17.274Z,8.50
2018-07-11T03:46:17.194Z,8.30
2018-07-11T03:47:17.187Z,8.40
2018-07-11T03:48:17.148Z,10.20
2018-07-11T03:49:17.199Z,7.60
2018-07-11T03:50:17.097Z,8.80
2018-07-11T03:51:17.108Z,8.50
2018-07-11T03:52:17.050Z,7.70
2018-07-11T03:53:17.120Z,9.20
2018-07-11T03:54:17.006Z,8.60
2018-07-11T03:55:17.030Z,7.00
2018-07-11T03:56:16.953Z,9.70
2018-07-11T03:57:17.042Z,10.10
2018-07-11T03:58:16.909Z,8.50
2018-07-11T03:59:16.951Z,9.40
2018-07-11T04:00:16.861Z,8.70
2018-07-11T04:01:16.863Z,9.30
2018-07-11T04:02:16.816Z,7.80
2018-07-11T04:03:16.869Z,8.90
2018-07-11T04:04:16.777Z,9.10
2018-07-11T04:05:16.786Z,8.40
2018-07-11T04:06:16.716Z,8.00
2018-07-11T04:07:16.797Z,8.50
2018-07-11T04:08:16.668Z,7.90
2018-07-11T04:09:16.742Z,10.80
2018-07-11T04:10:16.625Z,9.00
2018-07-11T04:11:16.621Z,10.00
2018-07-11T04:12:16.572Z,11.50
2018-07-11T04:13:16.634Z,10.30
2018-07-11T04:14:16.528Z,8.30
2018-07-11T04:15:16.544Z,8.90
2018-07-11T04:16:16.495Z,8.40
2018-07-11T04:17:16.545Z,8.70
2018-07-11T04:18:16.430Z,9.10
2018-07-11T04:19:16.464Z,9.40
2018-07-11T04:20:16.384Z,7.50
2018-07-11T04:21:16.368Z,8.80
2018-07-11T04:22:16.337Z,7.90
2018-07-11T04:23:16.387Z,8.10
2018-07-11T04:24:16.289Z,7.50
2018-07-11T04:25:16.296Z,7.70
2018-07-11T04:26:16.240Z,8.90
2018-07-11T04:27:16.309Z,9.10
2018-07-11T04:28:16.193Z,9.00
2018-07-11T04:29:16.217Z,8.40
2018-07-11T04:30:16.146Z,9.00
2018-07-11T04:31:16.231Z,9.90
2018-07-11T04:32:16.103Z,7.50
2018-07-11T04:33:16.133Z,8.60
2018-07-11T04:34:16.061Z,9.40
2018-07-11T04:35:16.066Z,7.50
2018-07-11T04:36:16.007Z,9.10
2018-07-11T04:37:16.061Z,8.20
2018-07-11T04:38:15.955Z,8.60
2018-07-11T04:39:15.992Z,7.60
2018-07-11T04:40:15.905Z,9.10
2018-07-11T04:41:15.985Z,7.90
2018-07-11T04:42:15.861Z,9.70
2018-07-11T04:43:15.901Z,9.20
2018-07-11T04:44:15.820Z,7.80
2018-07-11T04:45:15.805Z,14.50
2018-07-11T04:46:15.767Z,8.30
2018-07-11T04:47:15.815Z,11.70
2018-07-11T04:48:15.722Z,8.70
2018-07-11T04:49:15.764Z,9.50
2018-07-11T04:50:15.672Z,9.30
2018-07-11T04:51:15.744Z,9.50
2018-07-11T04:52:15.624Z,10.10
2018-07-11T04:53:15.652Z,11.20
2018-07-11T04:54:15.573Z,10.40
2018-07-11T04:55:15.664Z,9.20
2018-07-11T04:56:15.533Z,9.40
2018-07-11T04:57:15.576Z,8.10
2018-07-11T04:58:15.479Z,10.40
2018-07-11T04:59:15.484Z,8.70
2018-07-11T05:00:15.430Z,8.50
2018-07-11T05:01:15.496Z,9.40
2018-07-11T05:02:15.386Z,8.40
2018-07-11T05:03:15.406Z,8.60
2018-07-11T05:04:15.343Z,7.80
2018-07-11T05:05:15.418Z,11.10
2018-07-11T05:06:15.296Z,12.10
2018-07-11T05:07:15.329Z,10.40
2018-07-11T05:08:15.244Z,9.50
2018-07-11T05:09:15.241Z,8.40
2018-07-11T05:10:15.195Z,9.00
2018-07-11T05:11:15.267Z,8.90
2018-07-11T05:12:15.160Z,9.60
2018-07-11T05:13:15.161Z,9.90
2018-07-11T05:14:15.106Z,9.10
2018-07-11T05:15:15.174Z,11.90
2018-07-11T05:16:15.070Z,10.40
2018-07-11T05:17:15.084Z,8.90
2018-07-11T05:18:15.009Z,10.00
2018-07-11T05:19:15.097Z,8.70
2018-07-11T05:20:14.959Z,10.10
2018-07-11T05:21:15.017Z,10.20
2018-07-11T05:22:14.931Z,11.30
2018-07-11T05:23:14.918Z,10.20
2018-07-11T05:24:14.867Z,9.10
2018-07-11T05:25:14.932Z,9.10
2018-07-11T05:26:14.875Z,11.50
2018-07-11T05:27:14.845Z,8.40
2018-07-11T05:28:14.831Z,9.40
2018-07-11T05:29:14.856Z,9.80
2018-07-11T05:30:14.727Z,9.00
2018-07-11T05:31:14.762Z,11.40
2018-07-11T05:32:14.680Z,11.00
2018-07-11T05:33:14.673Z,7.70
2018-07-11T05:34:14.633Z,9.90
2018-07-11T05:35:14.685Z,12.10
2018-07-11T05:36:14.623Z,12.60
2018-07-11T05:37:14.596Z,11.70
2018-07-11T05:38:14.540Z,9.90
2018-07-11T05:39:14.613Z,9.60
2018-07-11T05:40:14.493Z,10.20
2018-07-11T05:41:14.521Z,10.90
2018-07-11T05:42:14.452Z,11.80
2018-07-11T05:43:14.535Z,8.50
2018-07-11T05:44:14.401Z,11.00
2018-07-11T05:45:15.474Z,11.80
2018-07-11T05:46:14.354Z,10.60
2018-07-11T05:47:14.368Z,12.00
2018-07-11T05:48:14.357Z,12.60
2018-07-11T05:49:14.366Z,10.70
2018-07-11T05:50:14.265Z,10.20
2018-07-11T05:51:14.276Z,10.10
2018-07-11T05:52:14.223Z,9.20
2018-07-11T05:53:14.296Z,10.50
2018-07-11T05:54:14.175Z,10.80
2018-07-11T05:55:14.194Z,9.40
2018-07-11T05:56:14.121Z,9.90
2018-07-11T05:57:14.207Z,9.30
2018-07-11T05:58:14.079Z,10.20
2018-07-11T05:59:14.117Z,10.50
2018-07-11T06:00:14.034Z,9.20
2018-07-11T06:01:14.027Z,10.50
2018-07-11T06:02:13.985Z,11.20
2018-07-11T06:03:14.049Z,8.70
2018-07-11T06:04:13.939Z,10.90
2018-07-11T06:05:13.949Z,9.90
2018-07-11T06:06:13.897Z,9.00
2018-07-11T06:07:13.964Z,11.50
2018-07-11T06:08:13.847Z,13.10
2018-07-11T06:09:13.873Z,9.70
2018-07-11T06:10:13.805Z,10.10
2018-07-11T06:11:13.885Z,10.30
2018-07-11T06:12:13.759Z,8.10
2018-07-11T06:13:13.798Z,9.10
2018-07-11T06:14:13.708Z,11.20
2018-07-11T06:15:13.707Z,8.70
2018-07-11T06:16:13.695Z,8.90
2018-07-11T06:17:13.725Z,10.10
2018-07-11T06:18:13.620Z,10.20
2018-07-11T06:19:13.634Z,8.90
2018-07-11T06:20:13.622Z,10.80
2018-07-11T06:21:13.642Z,8.30
2018-07-11T06:22:13.530Z,9.20
2018-07-11T06:23:13.551Z,8.70
2018-07-11T06:24:13.483Z,9.20
2018-07-11T06:25:13.564Z,10.00
2018-07-11T06:26:13.439Z,7.10
2018-07-11T06:27:13.509Z,10.20
2018-07-11T06:28:13.392Z,8.60
2018-07-11T06:29:13.382Z,8.60
2018-07-11T06:30:13.348Z,8.10
2018-07-11T06:31:13.396Z,9.10
2018-07-11T06:32:13.302Z,9.60
2018-07-11T06:33:13.320Z,9.70
2018-07-11T06:34:13.260Z,10.20
2018-07-11T06:35:13.316Z,9.80
2018-07-11T06:36:13.281Z,8.30
2018-07-11T06:37:13.231Z,9.00
2018-07-11T06:38:13.237Z,8.40
2018-07-11T06:39:13.155Z,8.10
2018-07-11T06:40:13.147Z,9.20
2018-07-11T06:41:13.106Z,10.60
2018-07-11T06:42:13.158Z,8.50
2018-07-11T06:43:13.166Z,9.70
2018-07-11T06:44:19.342Z,8.00
2018-07-11T06:45:13.075Z,8.80
2018-07-11T06:46:13.197Z,8.50
2018-07-11T06:47:13.987Z,7.60
2018-07-11T06:48:15.045Z,10.90
2018-07-11T06:49:12.994Z,8.60
2018-07-11T06:50:13.001Z,7.90
2018-07-11T06:51:12.880Z,9.90
2018-07-11T06:52:12.987Z,8.90
2018-07-11T06:53:12.835Z,8.30
2018-07-11T06:54:12.926Z,9.10
2018-07-11T06:55:12.827Z,9.00
2018-07-11T06:56:12.767Z,8.50
2018-07-11T06:57:12.905Z,8.90
2018-07-11T06:58:12.723Z,8.70
2018-07-11T06:59:12.820Z,10.70
2018-07-11T07:00:12.684Z,9.00
2018-07-11T07:01:12.830Z,7.80
2018-07-11T07:02:12.626Z,9.10
2018-07-11T07:03:12.675Z,7.50
2018-07-11T07:04:12.592Z,8.40
2018-07-11T07:05:12.677Z,9.50
2018-07-11T07:06:12.549Z,9.40
2018-07-11T07:07:12.596Z,8.70
2018-07-11T07:08:12.507Z,8.10
2018-07-11T07:09:12.505Z,8.30
2018-07-11T07:10:12.461Z,8.60
2018-07-11T07:11:12.595Z,8.40
2018-07-11T07:12:12.414Z,8.80
2018-07-11T07:13:12.509Z,6.40
2018-07-11T07:14:12.407Z,7.60
2018-07-11T07:15:12.549Z,7.10
2018-07-11T07:16:12.329Z,8.50
2018-07-11T07:17:12.351Z,8.50
2018-07-11T07:18:12.290Z,7.30
2018-07-11T07:19:12.446Z,7.20
2018-07-11T07:20:12.247Z,9.60
2018-07-11T07:21:12.359Z,6.00
2018-07-11T07:22:12.199Z,7.20
2018-07-11T07:23:12.372Z,7.20
2018-07-11T07:24:12.158Z,7.70
2018-07-11T07:25:12.284Z,6.00
2018-07-11T07:26:12.122Z,7.50
2018-07-11T07:27:12.195Z,10.60
2018-07-11T07:28:12.072Z,7.50
2018-07-11T07:29:12.192Z,7.60
2018-07-11T07:30:12.025Z,7.10
2018-07-11T07:31:12.019Z,7.60
2018-07-11T07:32:11.992Z,8.40
2018-07-11T07:33:12.035Z,9.30
2018-07-11T07:34:11.973Z,7.30
2018-07-11T07:35:12.059Z,7.40
2018-07-11T07:36:11.909Z,7.20
2018-07-11T07:37:12.064Z,8.40
2018-07-11T07:38:11.857Z,8.20
2018-07-11T07:39:11.976Z,9.80
2018-07-11T07:40:11.818Z,8.40
2018-07-11T07:41:11.885Z,9.70
2018-07-11T07:42:11.784Z,7.80
2018-07-11T07:43:11.798Z,9.80
2018-07-11T07:44:11.736Z,8.40
2018-07-11T07:45:11.816Z,11.60
2018-07-11T07:46:11.686Z,8.20
2018-07-11T07:47:11.887Z,8.70
2018-07-11T07:48:11.646Z,10.30
2018-07-11T07:49:11.844Z,8.40
2018-07-11T07:50:11.602Z,7.40
2018-07-11T07:51:11.650Z,8.60
2018-07-11T07:52:11.586Z,8.40
2018-07-11T07:53:11.561Z,8.00
2018-07-11T07:54:11.515Z,9.10
2018-07-11T07:55:11.575Z,9.60
2018-07-11T07:56:11.473Z,7.40
2018-07-11T07:57:11.488Z,12.90
2018-07-11T07:58:11.433Z,9.10
2018-07-11T07:59:11.502Z,10.90
2018-07-11T08:00:11.390Z,8.60
2018-07-11T08:01:11.414Z,7.10
2018-07-11T08:02:11.349Z,7.70
2018-07-11T08:03:11.433Z,8.60
2018-07-11T08:04:11.311Z,7.10
2018-07-11T08:05:11.357Z,7.80
2018-07-11T08:06:11.264Z,8.80
2018-07-11T08:07:11.357Z,8.00
2018-07-11T08:08:11.226Z,9.30
2018-07-11T08:09:11.271Z,7.70
2018-07-11T08:10:11.185Z,7.70
2018-07-11T08:11:11.283Z,7.50
2018-07-11T08:12:11.175Z,6.30
2018-07-11T08:13:11.190Z,7.70
2018-07-11T08:14:11.109Z,7.70
2018-07-11T08:15:11.116Z,7.70
2018-07-11T08:16:11.069Z,10.40
2018-07-11T08:17:11.114Z,7.00
2018-07-11T08:18:11.014Z,7.80
2018-07-11T08:19:11.031Z,9.60
2018-07-11T08:20:10.978Z,7.00
2018-07-11T08:21:11.049Z,6.80
2018-07-11T08:22:10.945Z,8.30
2018-07-11T08:23:10.913Z,8.60
2018-07-11T08:24:10.975Z,7.40
2018-07-11T08:25:10.875Z,7.80
2018-07-11T08:26:10.879Z,9.70
2018-07-11T08:27:10.888Z,8.60
2018-07-11T08:28:10.905Z,6.70
2018-07-11T08:29:10.798Z,10.00
2018-07-11T08:30:10.811Z,7.60
2018-07-11T08:31:10.751Z,8.70
2018-07-11T08:32:10.816Z,7.10
2018-07-11T08:33:10.709Z,6.00
2018-07-11T08:34:10.736Z,6.60
2018-07-11T08:35:10.761Z,8.60
2018-07-11T08:36:10.742Z,9.00
2018-07-11T08:37:10.678Z,7.20
2018-07-11T08:38:10.658Z,7.60
2018-07-11T08:39:10.589Z,6.80
2018-07-11T08:40:10.671Z,9.50
2018-07-11T08:41:10.550Z,7.70
2018-07-11T08:42:10.633Z,6.20
2018-07-11T08:43:10.510Z,6.90
2018-07-11T08:44:10.592Z,6.00
2018-07-11T08:45:10.470Z,8.40
2018-07-11T08:46:10.505Z,5.80
2018-07-11T08:47:10.431Z,6.50
2018-07-11T08:48:10.660Z,4.30
2018-07-11T08:49:10.391Z,7.20
2018-07-11T08:50:10.434Z,5.10
2018-07-11T08:51:10.353Z,6.50
2018-07-11T08:52:10.446Z,7.00
2018-07-11T08:53:10.313Z,5.20
2018-07-11T08:54:10.357Z,7.00
2018-07-11T08:55:10.311Z,8.70
2018-07-11T08:56:10.268Z,4.30
2018-07-11T08:57:10.237Z,6.80
2018-07-11T08:58:10.281Z,6.70
2018-07-11T08:59:10.194Z,6.30
2018-07-11T09:00:10.193Z,5.20
2018-07-11T09:01:10.158Z,6.60
2018-07-11T09:02:10.206Z,6.90
2018-07-11T09:03:10.119Z,6.00
2018-07-11T09:04:10.119Z,5.60
2018-07-11T09:05:10.082Z,5.20
2018-07-11T09:06:10.133Z,5.30
2018-07-11T09:07:10.043Z,5.70
2018-07-11T09:08:10.045Z,4.90
2018-07-11T09:09:10.005Z,5.50
2018-07-11T09:10:10.057Z,7.50
2018-07-11T09:11:09.968Z,5.40
2018-07-11T09:12:09.969Z,5.10
2018-07-11T09:13:09.933Z,5.20
2018-07-11T09:14:09.984Z,7.80
2018-07-11T09:15:09.896Z,4.70
2018-07-11T09:16:09.895Z,5.20
2018-07-11T09:17:09.856Z,5.20
2018-07-11T09:18:09.908Z,5.60
2018-07-11T09:19:09.822Z,5.30
2018-07-11T09:20:09.822Z,5.20
2018-07-11T09:21:09.784Z,4.70
2018-07-11T09:22:09.836Z,7.10
2018-07-11T09:23:09.740Z,3.20
2018-07-11T09:24:09.765Z,5.10
2018-07-11T09:25:09.723Z,4.60
2018-07-11T09:26:09.760Z,4.40
2018-07-11T09:27:09.673Z,5.50
2018-07-11T09:28:09.681Z,5.50
2018-07-11T09:29:09.641Z,4.80
2018-07-11T09:30:09.690Z,4.70
2018-07-11T09:31:09.600Z,4.40
2018-07-11T09:32:09.603Z,5.30
2018-07-11T09:33:09.566Z,3.10
2018-07-11T09:34:09.613Z,5.70
2018-07-11T09:35:09.527Z,5.30
2018-07-11T09:36:09.527Z,3.70
2018-07-11T09:37:09.492Z,5.40
2018-07-11T09:38:09.541Z,7.40
2018-07-11T09:39:09.453Z,4.60
2018-07-11T09:40:09.453Z,6.40
2018-07-11T09:41:09.422Z,5.60
2018-07-11T09:42:09.459Z,3.20
2018-07-11T09:43:09.386Z,5.20
2018-07-11T09:44:09.480Z,3.30
2018-07-11T09:45:09.383Z,2.90
2018-07-11T09:46:09.394Z,2.50
2018-07-11T09:47:09.315Z,2.80
2018-07-11T09:48:09.405Z,5.10
2018-07-11T09:49:09.283Z,4.00
2018-07-11T09:50:09.323Z,5.80
2018-07-11T09:51:09.247Z,4.50
2018-07-11T09:52:09.363Z,5.30
2018-07-11T09:53:09.214Z,5.90
2018-07-11T09:54:09.251Z,6.90
2018-07-11T09:55:09.180Z,5.70
2018-07-11T09:56:09.259Z,4.70
2018-07-11T09:57:09.146Z,4.10
2018-07-11T09:58:09.172Z,4.80
2018-07-11T09:59:09.113Z,5.60
2018-07-11T10:00:09.185Z,6.10
2018-07-11T10:01:09.079Z,4.80
2018-07-11T10:02:09.098Z,3.90
2018-07-11T10:03:09.045Z,4.10
2018-07-11T10:04:09.110Z,3.90
2018-07-11T10:05:09.034Z,3.90
2018-07-11T10:06:09.022Z,4.80
2018-07-11T10:07:08.984Z,3.30
2018-07-11T10:08:09.036Z,3.90
2018-07-11T10:09:08.942Z,4.60
2018-07-11T10:10:08.948Z,3.90
2018-07-11T10:11:08.913Z,4.00
2018-07-11T10:12:08.963Z,3.00
2018-07-11T10:13:08.883Z,3.70
2018-07-11T10:14:08.976Z,4.20
2018-07-11T10:15:08.848Z,4.70
2018-07-11T10:16:08.889Z,3.50
2018-07-11T10:17:08.818Z,7.90
2018-07-11T10:18:08.902Z,5.30
2018-07-11T10:19:08.784Z,2.90
2018-07-11T10:20:08.815Z,4.50
2018-07-11T10:21:08.752Z,5.90
2018-07-11T10:22:08.825Z,4.50
2018-07-11T10:23:08.720Z,4.50
2018-07-11T10:24:08.741Z,4.20
2018-07-11T10:25:08.690Z,4.50
2018-07-11T10:26:08.783Z,4.90
2018-07-11T10:27:08.654Z,3.60
2018-07-11T10:28:08.666Z,3.50
2018-07-11T10:29:08.622Z,3.00
2018-07-11T10:30:08.680Z,3.50
2018-07-11T10:31:08.589Z,3.40
2018-07-11T10:32:08.592Z,3.80
2018-07-11T10:33:08.559Z,6.10
2018-07-11T10:34:08.619Z,5.80
2018-07-11T10:35:08.527Z,3.90
2018-07-11T10:36:08.621Z,4.10
2018-07-11T10:37:08.500Z,4.00
2018-07-11T10:38:08.533Z,5.00
2018-07-11T10:39:08.517Z,4.40
2018-07-11T10:40:08.547Z,3.80
2018-07-11T10:41:08.437Z,5.20
2018-07-11T10:42:08.457Z,5.90
2018-07-11T10:43:08.403Z,3.50
2018-07-11T10:44:08.479Z,3.00
2018-07-11T10:45:08.374Z,3.90
2018-07-11T10:46:08.384Z,3.70
2018-07-11T10:47:08.342Z,3.20
2018-07-11T10:48:08.401Z,4.20
2018-07-11T10:49:08.312Z,3.80
2018-07-11T10:50:08.311Z,2.10
2018-07-11T10:51:08.291Z,3.10
2018-07-11T10:52:08.326Z,4.10
2018-07-11T10:53:08.253Z,5.40
2018-07-11T10:54:08.338Z,4.70
2018-07-11T10:55:08.225Z,6.20
2018-07-11T10:56:08.252Z,3.90
2018-07-11T10:57:08.205Z,4.40
2018-07-11T10:58:08.267Z,4.40
2018-07-11T10:59:08.161Z,2.90
2018-07-11T11:00:08.180Z,3.80
2018-07-11T11:01:08.184Z,4.50
2018-07-11T11:02:08.191Z,6.70
2018-07-11T11:03:08.115Z,3.20
2018-07-11T11:04:08.102Z,4.10
2018-07-11T11:05:08.077Z,4.40
2018-07-11T11:06:08.117Z,4.10
2018-07-11T11:07:08.046Z,4.10
2018-07-11T11:08:08.212Z,3.60
2018-07-11T11:09:08.043Z,5.00
2018-07-11T11:10:08.044Z,3.80
2018-07-11T11:11:08.000Z,2.60
2018-07-11T11:12:08.136Z,4.60
2018-07-11T11:13:07.956Z,5.10
2018-07-11T11:14:07.967Z,4.40
2018-07-11T11:15:07.928Z,5.30
2018-07-11T11:16:07.984Z,4.50
2018-07-11T11:17:07.897Z,3.90
2018-07-11T11:18:07.997Z,5.00
2018-07-11T11:19:07.870Z,6.20
2018-07-11T11:20:07.908Z,6.70
2018-07-11T11:21:07.841Z,4.30
2018-07-11T11:22:07.920Z,3.10
2018-07-11T11:23:07.812Z,5.40
2018-07-11T11:24:07.836Z,5.00
2018-07-11T11:25:07.784Z,4.40
2018-07-11T11:26:07.849Z,4.80
2018-07-11T11:27:07.754Z,4.90
2018-07-11T11:28:07.761Z,4.40
2018-07-11T11:29:07.724Z,4.00
2018-07-11T11:30:07.776Z,4.80
2018-07-11T11:31:07.700Z,3.60
2018-07-11T11:32:07.802Z,4.00
2018-07-11T11:33:07.668Z,3.60
2018-07-11T11:34:07.701Z,5.20
2018-07-11T11:35:07.640Z,5.00
2018-07-11T11:36:07.716Z,5.10
2018-07-11T11:37:07.608Z,4.90
2018-07-11T11:38:07.665Z,4.20
2018-07-11T11:39:07.583Z,3.00
2018-07-11T11:40:07.643Z,4.90
2018-07-11T11:41:07.548Z,5.10
2018-07-11T11:42:07.749Z,4.30
2018-07-11T11:43:07.526Z,5.10
2018-07-11T11:44:07.576Z,5.10
2018-07-11T11:45:07.490Z,5.40
2018-07-11T11:46:07.586Z,4.20
2018-07-11T11:47:07.459Z,7.00
2018-07-11T11:48:07.494Z,4.40
2018-07-11T11:49:07.429Z,4.50
2018-07-11T11:50:07.509Z,4.20
2018-07-11T11:51:07.400Z,6.40
2018-07-11T11:52:07.419Z,5.80
2018-07-11T11:53:07.373Z,6.20
2018-07-11T11:54:07.436Z,4.90
2018-07-11T11:55:07.333Z,4.90
2018-07-11T11:56:07.343Z,5.80
2018-07-11T11:57:07.394Z,6.80
2018-07-11T11:58:07.297Z,5.50
2018-07-11T11:59:07.283Z,5.60
2018-07-11T12:00:07.363Z,5.40
2018-07-11T12:01:07.343Z,6.30
2018-07-11T12:02:07.376Z,5.30
2018-07-11T12:03:07.310Z,5.60
2018-07-11T12:04:07.391Z,5.00
2018-07-11T12:05:07.286Z,6.30
2018-07-11T12:06:07.305Z,4.90
2018-07-11T12:07:07.242Z,3.70
2018-07-11T12:08:07.317Z,4.30
2018-07-11T12:09:07.137Z,9.80
2018-07-11T12:10:07.241Z,4.50
2018-07-11T12:11:07.124Z,4.40
2018-07-11T12:12:07.151Z,4.20
2018-07-11T12:13:07.117Z,6.10
2018-07-11T12:14:07.166Z,4.80
2018-07-11T12:15:07.049Z,4.50
2018-07-11T12:16:07.076Z,4.30
2018-07-11T12:17:07.021Z,4.80
2018-07-11T12:18:07.092Z,4.20
2018-07-11T12:19:06.992Z,4.50
2018-07-11T12:20:07.120Z,3.90
2018-07-11T12:21:06.968Z,6.50
2018-07-11T12:22:07.017Z,4.50
2018-07-11T12:23:06.935Z,4.00
2018-07-11T12:24:07.035Z,6.50
2018-07-11T12:25:07.011Z,4.40
2018-07-11T12:26:06.942Z,3.80
2018-07-11T12:27:06.881Z,4.00
2018-07-11T12:28:06.960Z,3.30
2018-07-11T12:29:06.853Z,4.70
2018-07-11T12:30:06.972Z,4.00
2018-07-11T12:31:06.845Z,4.30
2018-07-11T12:32:06.884Z,4.00
2018-07-11T12:33:06.799Z,5.20
2018-07-11T12:34:06.898Z,4.60
2018-07-11T12:35:06.770Z,4.50
2018-07-11T12:36:06.913Z,4.00
2018-07-11T12:37:06.738Z,5.00
2018-07-11T12:38:06.826Z,4.20
2018-07-11T12:39:06.713Z,4.40
2018-07-11T12:40:06.739Z,2.40
2018-07-11T12:41:06.687Z,3.30
2018-07-11T12:42:06.741Z,3.90
2018-07-11T12:43:06.657Z,3.60
2018-07-11T12:44:06.765Z,3.50
2018-07-11T12:45:06.631Z,6.40
2018-07-11T12:46:06.614Z,5.60
2018-07-11T12:47:06.604Z,5.50
2018-07-11T12:48:06.724Z,7.00
2018-07-11T12:49:06.569Z,4.60
2018-07-11T12:50:06.705Z,3.90
2018-07-11T12:51:06.548Z,5.40
2018-07-11T12:52:06.617Z,5.90
2018-07-11T12:53:06.520Z,7.20
2018-07-11T12:54:06.628Z,4.80
2018-07-11T12:55:06.490Z,4.50
2018-07-11T12:56:06.646Z,6.80
2018-07-11T12:57:06.467Z,3.70
2018-07-11T12:58:06.559Z,4.20
2018-07-11T12:59:06.435Z,5.30
2018-07-11T13:00:06.570Z,6.00
2018-07-11T13:01:06.409Z,5.40
2018-07-11T13:02:06.482Z,4.40
2018-07-11T13:03:06.380Z,4.00
2018-07-11T13:04:06.505Z,4.70
2018-07-11T13:05:06.351Z,4.40
2018-07-11T13:06:06.527Z,5.40
2018-07-11T13:07:06.323Z,3.30
2018-07-11T13:08:06.424Z,5.70
2018-07-11T13:09:06.293Z,6.40
2018-07-11T13:10:06.436Z,4.60
2018-07-11T13:11:06.267Z,4.30
2018-07-11T13:12:06.348Z,3.90
2018-07-11T13:13:06.241Z,5.10
2018-07-11T13:14:06.393Z,6.00
2018-07-11T13:15:06.208Z,4.40
2018-07-11T13:16:06.437Z,7.50